sensor_id;sensor_type;location;lat;lon;timestamp;temperature;humidity
9265;DHT22;4669;49.594;10.958;2023-05-07T04:27:19;15.30;99.90
9265;DHT22;4669;49.594;10.958;2023-05-07T04:32:22;15.30;99.90
9265;DHT22;4669;49.594;10.958;2023-05-07T04:37:26;15.30;99.90
9265;DHT22;4669;49.594;10.958;2023-05-07T04:42:30;15.30;99.90
9265;DHT22;4669;49.594;10.958;2023-05-07T04:47:33;15.30;99.90
9265;DHT22;4669;49.594;10.958;2023-05-07T04:52:37;15.40;99.90
9265;DHT22;4669;49.594;10.958;2023-05-07T04:57:41;15.50;99.90
9265;DHT22;4669;49.594;10.958;2023-05-07T05:02:46;15.70;99.90
9265;DHT22;4669;49.594;10.958;2023-05-07T05:07:52;15.80;99.90
9265;DHT22;4669;49.594;10.958;2023-05-07T05:12:56;15.90;99.90
9265;DHT22;4669;49.594;10.958;2023-05-07T05:17:59;15.90;99.90
9265;DHT22;4669;49.594;10.958;2023-05-07T05:23:01;16.00;99.90
9265;DHT22;4669;49.594;10.958;2023-05-07T05:28:06;16.00;99.90
9265;DHT22;4669;49.594;10.958;2023-05-07T05:33:09;16.10;99.90
9265;DHT22;4669;49.594;10.958;2023-05-07T05:38:11;16.20;99.90
9265;DHT22;4669;49.594;10.958;2023-05-07T05:43:16;16.30;99.90
9265;DHT22;4669;49.594;10.958;2023-05-07T05:48:18;16.30;99.90
9265;DHT22;4669;49.594;10.958;2023-05-07T05:53:20;16.30;99.90
9265;DHT22;4669;49.594;10.958;2023-05-07T05:58:24;16.30;99.90
9265;DHT22;4669;49.594;10.958;2023-05-07T06:03:31;16.40;99.90
9265;DHT22;4669;49.594;10.958;2023-05-07T06:08:37;16.50;99.90
9265;DHT22;4669;49.594;10.958;2023-05-07T06:13:40;16.70;99.90
9265;DHT22;4669;49.594;10.958;2023-05-07T06:18:42;16.80;99.90
9265;DHT22;4669;49.594;10.958;2023-05-07T06:23:47;16.90;99.90
9265;DHT22;4669;49.594;10.958;2023-05-07T06:28:51;17.00;99.90
9265;DHT22;4669;49.594;10.958;2023-05-07T06:33:53;17.00;99.90
9265;DHT22;4669;49.594;10.958;2023-05-07T06:38:57;17.00;99.90
9265;DHT22;4669;49.594;10.958;2023-05-07T06:44:00;17.10;99.90
9265;DHT22;4669;49.594;10.958;2023-05-07T06:49:12;17.10;99.90
9265;DHT22;4669;49.594;10.958;2023-05-07T06:54:15;17.10;99.90
9265;DHT22;4669;49.594;10.958;2023-05-07T06:59:20;17.30;99.90
9265;DHT22;4669;49.594;10.958;2023-05-07T07:04:23;17.30;99.90
9265;DHT22;4669;49.594;10.958;2023-05-07T07:09:33;17.50;99.90
9265;DHT22;4669;49.594;10.958;2023-05-07T07:14:38;17.60;99.60
9265;DHT22;4669;49.594;10.958;2023-05-07T07:19:41;17.60;99.70
9265;DHT22;4669;49.594;10.958;2023-05-07T07:24:44;17.70;99.50
9265;DHT22;4669;49.594;10.958;2023-05-07T07:29:50;17.80;99.50
9265;DHT22;4669;49.594;10.958;2023-05-07T07:34:52;17.90;99.50
9265;DHT22;4669;49.594;10.958;2023-05-07T07:39:55;17.80;99.40
9265;DHT22;4669;49.594;10.958;2023-05-07T07:44:59;17.90;99.30
9265;DHT22;4669;49.594;10.958;2023-05-07T07:50:06;18.00;99.40
9265;DHT22;4669;49.594;10.958;2023-05-07T07:55:08;18.00;98.90
9265;DHT22;4669;49.594;10.958;2023-05-07T08:00:15;18.00;99.30
9265;DHT22;4669;49.594;10.958;2023-05-07T08:05:17;17.90;99.20
9265;DHT22;4669;49.594;10.958;2023-05-07T08:10:21;17.90;99.30
9265;DHT22;4669;49.594;10.958;2023-05-07T08:15:29;17.90;99.30
9265;DHT22;4669;49.594;10.958;2023-05-07T08:20:31;18.00;99.20
9265;DHT22;4669;49.594;10.958;2023-05-07T08:25:34;18.20;99.50
9265;DHT22;4669;49.594;10.958;2023-05-07T08:30:38;18.30;99.10
9265;DHT22;4669;49.594;10.958;2023-05-07T08:35:40;18.30;99.20
9265;DHT22;4669;49.594;10.958;2023-05-07T08:40:44;18.20;99.10
9265;DHT22;4669;49.594;10.958;2023-05-07T08:45:55;18.30;99.60
9265;DHT22;4669;49.594;10.958;2023-05-07T08:51:03;18.40;98.70
9265;DHT22;4669;49.594;10.958;2023-05-07T08:56:06;18.40;98.90
9265;DHT22;4669;49.594;10.958;2023-05-07T09:01:14;18.50;99.10
9265;DHT22;4669;49.594;10.958;2023-05-07T09:06:17;18.60;98.80
9265;DHT22;4669;49.594;10.958;2023-05-07T09:11:21;18.70;98.90
9265;DHT22;4669;49.594;10.958;2023-05-07T09:16:26;18.80;99.00
9265;DHT22;4669;49.594;10.958;2023-05-07T09:21:29;18.80;98.60
9265;DHT22;4669;49.594;10.958;2023-05-07T09:26:35;18.90;98.70
9265;DHT22;4669;49.594;10.958;2023-05-07T09:31:40;18.90;98.90
9265;DHT22;4669;49.594;10.958;2023-05-07T09:36:47;19.00;99.10
9265;DHT22;4669;49.594;10.958;2023-05-07T09:41:50;19.20;99.00
9265;DHT22;4669;49.594;10.958;2023-05-07T09:47:05;19.30;99.00
9265;DHT22;4669;49.594;10.958;2023-05-07T09:52:13;19.30;99.20
9265;DHT22;4669;49.594;10.958;2023-05-07T09:57:21;19.60;98.40
9265;DHT22;4669;49.594;10.958;2023-05-07T10:02:30;19.70;98.60
9265;DHT22;4669;49.594;10.958;2023-05-07T10:07:33;19.80;98.40
9265;DHT22;4669;49.594;10.958;2023-05-07T10:12:40;19.80;98.00
9265;DHT22;4669;49.594;10.958;2023-05-07T10:17:51;19.90;97.80
9265;DHT22;4669;49.594;10.958;2023-05-07T10:22:56;19.90;97.60
9265;DHT22;4669;49.594;10.958;2023-05-07T10:28:06;20.10;97.70
9265;DHT22;4669;49.594;10.958;2023-05-07T10:33:15;20.30;96.70
9265;DHT22;4669;49.594;10.958;2023-05-07T10:38:19;20.30;96.40
9265;DHT22;4669;49.594;10.958;2023-05-07T10:43:22;20.30;97.00
9265;DHT22;4669;49.594;10.958;2023-05-07T10:48:32;20.40;97.20
9265;DHT22;4669;49.594;10.958;2023-05-07T10:53:40;20.60;97.20
9265;DHT22;4669;49.594;10.958;2023-05-07T10:58:49;20.60;96.50
9265;DHT22;4669;49.594;10.958;2023-05-07T11:04:16;20.50;96.90
9265;DHT22;4669;49.594;10.958;2023-05-07T11:09:55;20.50;96.60
9265;DHT22;4669;49.594;10.958;2023-05-07T11:15:36;20.60;96.40
9265;DHT22;4669;49.594;10.958;2023-05-07T11:20:56;20.70;96.80
9265;DHT22;4669;49.594;10.958;2023-05-07T11:26:16;20.90;96.70
9265;DHT22;4669;49.594;10.958;2023-05-07T11:31:24;20.90;96.00
9265;DHT22;4669;49.594;10.958;2023-05-07T11:36:31;21.00;95.20
9265;DHT22;4669;49.594;10.958;2023-05-07T11:41:36;20.80;95.30
9265;DHT22;4669;49.594;10.958;2023-05-07T11:46:43;20.80;95.70
9265;DHT22;4669;49.594;10.958;2023-05-07T11:51:46;21.00;94.40
9265;DHT22;4669;49.594;10.958;2023-05-07T11:56:49;21.10;94.50
9265;DHT22;4669;49.594;10.958;2023-05-07T12:01:51;21.20;93.90
9265;DHT22;4669;49.594;10.958;2023-05-07T12:06:55;21.30;94.10
9265;DHT22;4669;49.594;10.958;2023-05-07T12:11:57;21.40;93.00
9265;DHT22;4669;49.594;10.958;2023-05-07T12:17:05;21.40;93.90
9265;DHT22;4669;49.594;10.958;2023-05-07T12:22:09;21.40;94.10
9265;DHT22;4669;49.594;10.958;2023-05-07T12:27:11;21.30;94.00
9265;DHT22;4669;49.594;10.958;2023-05-07T12:32:13;21.30;94.50
9265;DHT22;4669;49.594;10.958;2023-05-07T12:37:23;21.40;93.80
9265;DHT22;4669;49.594;10.958;2023-05-07T12:42:25;21.50;93.80
9265;DHT22;4669;49.594;10.958;2023-05-07T12:47:27;21.70;93.90
9265;DHT22;4669;49.594;10.958;2023-05-07T12:52:30;21.80;93.90
9265;DHT22;4669;49.594;10.958;2023-05-07T12:57:38;21.90;93.60
9265;DHT22;4669;49.594;10.958;2023-05-07T13:02:41;22.10;93.30
9265;DHT22;4669;49.594;10.958;2023-05-07T13:07:54;22.30;91.90
9265;DHT22;4669;49.594;10.958;2023-05-07T13:12:56;22.40;92.10
9265;DHT22;4669;49.594;10.958;2023-05-07T13:17:58;22.60;91.40
9265;DHT22;4669;49.594;10.958;2023-05-07T13:23:02;22.90;91.90
9265;DHT22;4669;49.594;10.958;2023-05-07T13:28:05;22.80;91.60
9265;DHT22;4669;49.594;10.958;2023-05-07T13:33:07;22.70;91.90
9265;DHT22;4669;49.594;10.958;2023-05-07T13:38:10;22.90;91.70
9265;DHT22;4669;49.594;10.958;2023-05-07T13:43:12;22.90;91.50
9265;DHT22;4669;49.594;10.958;2023-05-07T13:48:15;23.30;90.70
9265;DHT22;4669;49.594;10.958;2023-05-07T13:53:18;23.50;90.50
9265;DHT22;4669;49.594;10.958;2023-05-07T13:58:20;23.60;90.10
9265;DHT22;4669;49.594;10.958;2023-05-07T14:03:22;23.70;89.80
9265;DHT22;4669;49.594;10.958;2023-05-07T14:08:26;23.70;88.40
9265;DHT22;4669;49.594;10.958;2023-05-07T14:13:28;23.60;89.90
9265;DHT22;4669;49.594;10.958;2023-05-07T14:18:31;23.70;88.60
9265;DHT22;4669;49.594;10.958;2023-05-07T14:23:35;23.70;88.50
9265;DHT22;4669;49.594;10.958;2023-05-07T14:28:37;23.50;87.60
9265;DHT22;4669;49.594;10.958;2023-05-07T14:33:40;23.30;87.80
9265;DHT22;4669;49.594;10.958;2023-05-07T14:38:44;23.00;87.30
9265;DHT22;4669;49.594;10.958;2023-05-07T14:43:46;22.80;88.10
9265;DHT22;4669;49.594;10.958;2023-05-07T14:48:50;22.70;88.90
9265;DHT22;4669;49.594;10.958;2023-05-07T14:53:55;22.70;87.80
9265;DHT22;4669;49.594;10.958;2023-05-07T14:58:57;22.80;86.70
9265;DHT22;4669;49.594;10.958;2023-05-07T15:03:59;23.10;87.90
9265;DHT22;4669;49.594;10.958;2023-05-07T15:09:03;23.60;85.60
9265;DHT22;4669;49.594;10.958;2023-05-07T15:14:05;23.90;84.40
9265;DHT22;4669;49.594;10.958;2023-05-07T15:19:07;23.70;85.10
9265;DHT22;4669;49.594;10.958;2023-05-07T15:24:10;23.70;83.60
9265;DHT22;4669;49.594;10.958;2023-05-07T15:29:14;23.80;84.50
9265;DHT22;4669;49.594;10.958;2023-05-07T15:34:16;24.00;84.20
9265;DHT22;4669;49.594;10.958;2023-05-07T15:39:20;24.00;85.00
9265;DHT22;4669;49.594;10.958;2023-05-07T15:44:22;23.70;83.80
9265;DHT22;4669;49.594;10.958;2023-05-07T15:49:27;23.40;85.00
9265;DHT22;4669;49.594;10.958;2023-05-07T15:54:31;23.30;84.30
9265;DHT22;4669;49.594;10.958;2023-05-07T15:59:33;23.10;83.80
9265;DHT22;4669;49.594;10.958;2023-05-07T16:04:35;22.90;84.80
9265;DHT22;4669;49.594;10.958;2023-05-07T16:09:39;22.70;85.30
9265;DHT22;4669;49.594;10.958;2023-05-07T16:14:41;22.60;85.30
9265;DHT22;4669;49.594;10.958;2023-05-07T16:19:43;22.40;84.90
9265;DHT22;4669;49.594;10.958;2023-05-07T16:24:47;22.20;85.20
9265;DHT22;4669;49.594;10.958;2023-05-07T16:29:49;22.20;85.60
9265;DHT22;4669;49.594;10.958;2023-05-07T16:34:51;22.10;86.60
9265;DHT22;4669;49.594;10.958;2023-05-07T16:39:54;22.00;87.00
9265;DHT22;4669;49.594;10.958;2023-05-07T16:44:57;21.90;88.10
9265;DHT22;4669;49.594;10.958;2023-05-07T16:49:59;21.70;87.70
9265;DHT22;4669;49.594;10.958;2023-05-07T16:55:07;21.60;88.20
9265;DHT22;4669;49.594;10.958;2023-05-07T17:00:10;21.60;88.20
9265;DHT22;4669;49.594;10.958;2023-05-07T17:05:12;21.60;89.20
9265;DHT22;4669;49.594;10.958;2023-05-07T17:10:15;21.50;88.60
9265;DHT22;4669;49.594;10.958;2023-05-07T17:15:18;21.40;89.30
9265;DHT22;4669;49.594;10.958;2023-05-07T17:20:20;21.30;88.80
9265;DHT22;4669;49.594;10.958;2023-05-07T17:25:23;21.20;89.80
9265;DHT22;4669;49.594;10.958;2023-05-07T17:30:25;21.20;89.50
9265;DHT22;4669;49.594;10.958;2023-05-07T17:35:27;21.10;90.10
9265;DHT22;4669;49.594;10.958;2023-05-07T17:40:33;21.00;90.10
9265;DHT22;4669;49.594;10.958;2023-05-07T17:45:35;20.90;90.30
9265;DHT22;4669;49.594;10.958;2023-05-07T17:50:37;20.90;89.70
9265;DHT22;4669;49.594;10.958;2023-05-07T17:55:44;20.80;89.90
9265;DHT22;4669;49.594;10.958;2023-05-07T18:00:46;20.70;89.60
9265;DHT22;4669;49.594;10.958;2023-05-07T18:05:48;20.60;89.90
9265;DHT22;4669;49.594;10.958;2023-05-07T18:10:52;20.50;89.60
9265;DHT22;4669;49.594;10.958;2023-05-07T18:15:54;20.50;89.90
9265;DHT22;4669;49.594;10.958;2023-05-07T18:20:56;20.40;89.50
9265;DHT22;4669;49.594;10.958;2023-05-07T18:25:59;20.30;90.10
9265;DHT22;4669;49.594;10.958;2023-05-07T18:31:03;20.30;90.10
9265;DHT22;4669;49.594;10.958;2023-05-07T18:36:05;20.20;90.10
9265;DHT22;4669;49.594;10.958;2023-05-07T18:41:09;20.20;90.10
9265;DHT22;4669;49.594;10.958;2023-05-07T18:46:11;20.10;89.30
9265;DHT22;4669;49.594;10.958;2023-05-07T18:51:13;20.00;89.00
9265;DHT22;4669;49.594;10.958;2023-05-07T18:56:16;20.00;89.30
9265;DHT22;4669;49.594;10.958;2023-05-07T19:01:18;19.90;89.50
9265;DHT22;4669;49.594;10.958;2023-05-07T19:06:20;19.80;89.70
9265;DHT22;4669;49.594;10.958;2023-05-07T19:11:24;19.80;89.30
9265;DHT22;4669;49.594;10.958;2023-05-07T19:16:26;19.80;88.30
9265;DHT22;4669;49.594;10.958;2023-05-07T19:21:28;19.70;88.50
9265;DHT22;4669;49.594;10.958;2023-05-07T19:26:32;19.60;89.40
9265;DHT22;4669;49.594;10.958;2023-05-07T19:31:34;19.50;89.50
9265;DHT22;4669;49.594;10.958;2023-05-07T19:36:36;19.50;89.30
9265;DHT22;4669;49.594;10.958;2023-05-07T19:41:40;19.40;89.00
9265;DHT22;4669;49.594;10.958;2023-05-07T19:46:42;19.40;89.40
9265;DHT22;4669;49.594;10.958;2023-05-07T19:51:47;19.30;88.90
9265;DHT22;4669;49.594;10.958;2023-05-07T19:56:50;19.20;88.80
9265;DHT22;4669;49.594;10.958;2023-05-07T20:01:52;19.20;89.20
9265;DHT22;4669;49.594;10.958;2023-05-07T20:06:54;19.20;89.00
9265;DHT22;4669;49.594;10.958;2023-05-07T20:11:58;19.20;89.50
9265;DHT22;4669;49.594;10.958;2023-05-07T20:17:00;19.10;89.70
9265;DHT22;4669;49.594;10.958;2023-05-07T20:22:02;18.90;90.10
9265;DHT22;4669;49.594;10.958;2023-05-07T20:27:06;18.90;90.40
9265;DHT22;4669;49.594;10.958;2023-05-07T20:32:08;18.90;90.20
9265;DHT22;4669;49.594;10.958;2023-05-07T20:37:11;18.90;90.30
9265;DHT22;4669;49.594;10.958;2023-05-07T20:42:16;18.80;90.40
9265;DHT22;4669;49.594;10.958;2023-05-07T20:47:18;18.70;90.60
9265;DHT22;4669;49.594;10.958;2023-05-07T20:52:20;18.50;90.80
9265;DHT22;4669;49.594;10.958;2023-05-07T20:57:24;18.40;91.10
9265;DHT22;4669;49.594;10.958;2023-05-07T21:02:26;18.40;91.20
9265;DHT22;4669;49.594;10.958;2023-05-07T21:07:28;18.40;91.20
9265;DHT22;4669;49.594;10.958;2023-05-07T21:12:32;18.40;91.20
9265;DHT22;4669;49.594;10.958;2023-05-07T21:17:34;18.40;91.40
9265;DHT22;4669;49.594;10.958;2023-05-07T21:22:36;18.30;91.20
9265;DHT22;4669;49.594;10.958;2023-05-07T21:27:39;18.30;91.20
9265;DHT22;4669;49.594;10.958;2023-05-07T21:32:41;18.20;91.20
9265;DHT22;4669;49.594;10.958;2023-05-07T21:37:43;18.10;91.30
9265;DHT22;4669;49.594;10.958;2023-05-07T21:42:47;18.00;91.40
9265;DHT22;4669;49.594;10.958;2023-05-07T21:47:49;18.00;91.50
9265;DHT22;4669;49.594;10.958;2023-05-07T21:52:51;18.00;91.50
9265;DHT22;4669;49.594;10.958;2023-05-07T21:57:54;18.00;91.60
